Time;durP1;ratioP1;P1;durP2;ratioP2;P2;SDS_P1;SDS_P2;PMS_P1;PMS_P2;Temp;Humidity;BMP_temperature;BMP_pressure;BME280_temperature;BME280_humidity;BME280_pressure;Samples;Min_cycle;Max_cycle;Signal;HPM_P1;HPM_P2
2023/06/23 00:01:20;;;;;;;15.93;13.13;;;25.00;99.90;;;;;;5073033;28;20024;-76
2023/06/23 00:03:46;;;;;;;17.88;12.98;;;24.90;99.90;;;;;;5074471;28;20027;-76
2023/06/23 00:06:12;;;;;;;21.75;13.75;;;24.90;99.90;;;;;;5074232;28;20032;-76
2023/06/23 00:08:39;;;;;;;23.65;14.63;;;24.80;99.90;;;;;;5074180;28;20031;-76
2023/06/23 00:11:06;;;;;;;18.88;13.93;;;24.80;99.90;;;;;;5072912;28;20082;-76
2023/06/23 00:13:34;;;;;;;19.75;13.90;;;24.60;99.90;;;;;;5073005;28;20436;-76
2023/06/23 00:16:01;;;;;;;20.25;13.80;;;24.50;99.90;;;;;;5072551;28;20021;-76
2023/06/23 00:18:26;;;;;;;19.95;13.27;;;24.40;99.90;;;;;;5074023;28;20082;-76
2023/06/23 00:20:54;;;;;;;19.35;13.65;;;24.30;99.90;;;;;;5074038;28;20423;-76
2023/06/23 00:23:20;;;;;;;24.05;14.45;;;24.10;99.90;;;;;;5072745;28;20384;-76
2023/06/23 00:25:46;;;;;;;20.00;15.23;;;24.00;99.90;;;;;;5074057;28;20483;-76
2023/06/23 00:28:11;;;;;;;19.05;14.35;;;23.90;99.90;;;;;;5073937;28;20029;-76
2023/06/23 00:30:37;;;;;;;27.70;15.00;;;23.80;99.90;;;;;;5073706;28;20060;-76
2023/06/23 00:33:03;;;;;;;21.38;14.25;;;23.80;99.90;;;;;;5073886;28;20453;-76
2023/06/23 00:35:28;;;;;;;19.85;14.43;;;23.70;99.90;;;;;;5072658;28;20036;-76
2023/06/23 00:38:21;;;;;;;19.88;14.63;;;23.60;99.90;;;;;;5072750;28;20025;-76
2023/06/23 00:40:50;;;;;;;19.27;13.77;;;23.60;99.90;;;;;;5063176;28;20215;-77
2023/06/23 00:43:20;;;;;;;20.25;14.60;;;23.50;99.90;;;;;;5073225;28;20045;-76
2023/06/23 00:45:56;;;;;;;22.08;15.02;;;23.40;99.90;;;;;;5072521;28;20089;-76
2023/06/23 00:48:34;;;;;;;22.02;15.68;;;23.40;99.90;;;;;;5073584;28;20021;-76
2023/06/23 00:51:04;;;;;;;18.85;14.40;;;23.30;99.90;;;;;;5063001;28;20049;-76
2023/06/23 00:53:36;;;;;;;17.65;15.18;;;23.30;99.90;;;;;;5055739;28;20028;-76
2023/06/23 00:56:08;;;;;;;22.85;14.90;;;23.20;99.90;;;;;;5072557;28;20353;-76
2023/06/23 00:58:39;;;;;;;23.98;15.20;;;23.20;99.90;;;;;;5073792;28;20040;-76
2023/06/23 01:01:07;;;;;;;20.45;14.50;;;23.10;99.90;;;;;;5056248;28;20032;-76
2023/06/23 01:03:36;;;;;;;23.05;13.93;;;23.10;99.90;;;;;;5071549;28;20070;-76
2023/06/23 01:06:38;;;;;;;22.30;13.73;;;23.30;99.90;;;;;;5071938;28;20035;-76
2023/06/23 01:09:37;;;;;;;23.45;13.70;;;23.60;99.90;;;;;;5072321;28;20020;-76
2023/06/23 01:12:03;;;;;;;;;;;23.80;99.90;;;;;;5071412;28;20498;-76
2023/06/23 01:14:56;;;;;;;20.03;11.93;;;23.90;99.90;;;;;;5073155;28;20343;-76
2023/06/23 01:17:40;;;;;;;17.15;11.35;;;24.00;99.90;;;;;;5073573;28;20024;-77
2023/06/23 01:20:30;;;;;;;20.30;10.43;;;24.20;99.90;;;;;;5073173;28;20032;-76
2023/06/23 01:22:58;;;;;;;;;;;24.20;99.90;;;;;;5072804;28;20032;-76
2023/06/23 01:25:36;;;;;;;23.90;9.10;;;24.40;99.90;;;;;;5073066;28;19912;-76
2023/06/23 01:28:21;;;;;;;14.90;8.63;;;24.70;99.90;;;;;;5074572;28;20127;-75
2023/06/23 01:30:55;;;;;;;15.25;7.05;;;24.90;99.90;;;;;;5076263;28;20024;-76
2023/06/23 01:33:27;;;;;;;17.75;7.03;;;25.10;99.90;;;;;;5077179;28;20468;-76
2023/06/23 01:36:12;;;;;;;21.95;6.97;;;25.10;99.90;;;;;;5075967;28;20036;-76
2023/06/23 01:38:46;;;;;;;19.77;6.20;;;25.20;99.90;;;;;;5073258;28;20392;-76
2023/06/23 01:41:23;;;;;;;20.30;5.57;;;25.20;99.90;;;;;;5077458;28;20023;-75
2023/06/23 01:43:56;;;;;;;20.83;5.50;;;25.30;99.90;;;;;;5075832;28;20029;-76
2023/06/23 01:46:34;;;;;;;22.55;4.82;;;25.30;99.90;;;;;;5074902;28;20056;-76
2023/06/23 01:49:10;;;;;;;16.33;4.28;;;25.30;99.90;;;;;;5075707;28;20487;-76
2023/06/23 01:51:46;;;;;;;13.40;4.40;;;25.20;99.90;;;;;;5075754;28;20037;-75
2023/06/23 01:54:17;;;;;;;20.42;4.88;;;25.30;99.90;;;;;;5076784;28;20479;-75
2023/06/23 01:56:52;;;;;;;22.85;4.20;;;25.20;99.90;;;;;;5075079;28;20385;-75
2023/06/23 01:59:23;;;;;;;21.42;4.90;;;25.20;99.90;;;;;;5075381;28;20028;-75
2023/06/23 02:02:05;;;;;;;15.95;4.50;;;25.20;99.90;;;;;;5075316;28;20074;-75
2023/06/23 02:04:35;;;;;;;18.05;3.58;;;25.10;99.90;;;;;;5076556;28;20039;-75
2023/06/23 02:07:03;;;;;;;20.27;4.10;;;25.10;99.90;;;;;;5077494;28;20074;-75
2023/06/23 02:09:32;;;;;;;17.05;4.10;;;25.10;99.90;;;;;;5076221;28;20376;-76
2023/06/23 02:12:15;;;;;;;13.27;3.47;;;25.00;99.90;;;;;;5074844;28;20025;-75
2023/06/23 02:14:49;;;;;;;20.38;4.53;;;25.00;99.90;;;;;;5076122;28;20045;-76
2023/06/23 02:17:18;;;;;;;12.05;3.45;;;24.90;99.90;;;;;;5059408;28;20029;-76
2023/06/23 02:19:51;;;;;;;13.35;4.15;;;24.90;99.90;;;;;;5074599;28;20031;-74
2023/06/23 02:22:32;;;;;;;15.27;3.88;;;24.80;99.90;;;;;;5076180;28;20464;-75
2023/06/23 02:25:01;;;;;;;18.15;4.07;;;24.80;99.90;;;;;;5074881;28;20078;-75
2023/06/23 02:27:33;;;;;;;11.65;4.38;;;24.80;99.90;;;;;;5076430;28;20028;-74
2023/06/23 02:30:06;;;;;;;14.70;3.75;;;24.70;99.90;;;;;;5075990;28;20043;-75
2023/06/23 02:32:34;;;;;;;16.52;3.95;;;24.60;99.90;;;;;;5076129;28;20043;-74
2023/06/23 02:35:10;;;;;;;16.50;4.10;;;24.60;99.90;;;;;;5073992;28;20068;-74
2023/06/23 02:37:42;;;;;;;16.10;4.05;;;24.60;99.90;;;;;;5058804;28;20267;-74
2023/06/23 02:40:16;;;;;;;11.02;3.78;;;24.50;99.90;;;;;;5075973;28;20021;-75
2023/06/23 02:43:00;;;;;;;18.23;3.60;;;24.40;99.90;;;;;;5074808;28;20486;-74
2023/06/23 02:45:36;;;;;;;15.10;4.05;;;24.40;99.90;;;;;;5075194;28;20032;-74
2023/06/23 02:48:06;;;;;;;13.05;3.35;;;24.40;99.90;;;;;;5075781;28;20067;-74
2023/06/23 02:51:04;;;;;;;7.70;3.50;;;24.30;99.90;;;;;;5073042;28;20067;-74
2023/06/23 02:53:48;;;;;;;14.85;4.50;;;24.30;99.90;;;;;;5075242;28;20029;-74
2023/06/23 02:56:25;;;;;;;14.18;3.63;;;24.20;99.90;;;;;;5073723;28;20067;-74
2023/06/23 02:59:00;;;;;;;17.73;3.70;;;24.20;99.90;;;;;;5074374;28;20074;-74
2023/06/23 03:01:31;;;;;;;11.25;3.53;;;24.20;99.90;;;;;;5075039;28;20075;-74
2023/06/23 03:04:00;;;;;;;15.25;3.83;;;24.10;99.90;;;;;;5073070;28;20028;-75
2023/06/23 03:06:28;;;;;;;12.25;3.55;;;24.10;99.90;;;;;;5041140;28;20037;-74
2023/06/23 03:09:05;;;;;;;18.15;3.75;;;24.00;99.90;;;;;;5074929;28;20028;-74
2023/06/23 03:11:41;;;;;;;11.90;3.65;;;24.00;99.90;;;;;;5074159;28;20060;-74
2023/06/23 03:14:13;;;;;;;10.57;3.00;;;23.90;99.90;;;;;;5071688;28;20091;-74
2023/06/23 03:16:46;;;;;;;9.15;4.07;;;23.90;99.90;;;;;;5073661;28;20123;-74
2023/06/23 03:19:46;;;;;;;9.20;3.20;;;23.90;99.90;;;;;;5072727;28;20032;-74
2023/06/23 03:22:38;;;;;;;9.45;2.80;;;23.80;99.90;;;;;;5013036;28;20034;-75
2023/06/23 03:25:18;;;;;;;8.35;3.13;;;23.80;99.90;;;;;;4997157;28;20137;-74
2023/06/23 03:27:50;;;;;;;11.13;3.40;;;23.80;99.90;;;;;;5073781;28;20480;-75
2023/06/23 03:30:44;;;;;;;10.77;2.80;;;23.80;99.90;;;;;;5074934;28;20031;-75
2023/06/23 03:33:32;;;;;;;10.20;3.05;;;23.80;99.90;;;;;;5068541;28;20041;-74
2023/06/23 03:36:14;;;;;;;9.25;3.22;;;23.80;99.90;;;;;;5074700;28;20037;-75
2023/06/23 03:39:03;;;;;;;6.57;2.50;;;23.80;99.90;;;;;;5074248;28;20047;-74
2023/06/23 03:41:32;;;;;;;12.80;2.58;;;23.80;99.90;;;;;;5072713;28;20024;-75
2023/06/23 03:44:30;;;;;;;8.65;3.03;;;23.80;99.90;;;;;;5074661;28;20060;-74
2023/06/23 03:47:14;;;;;;;10.90;2.80;;;23.80;99.90;;;;;;5074429;28;20025;-74
2023/06/23 03:49:55;;;;;;;8.57;2.55;;;23.80;99.90;;;;;;5063841;28;20049;-74
2023/06/23 03:52:30;;;;;;;9.50;3.03;;;23.80;99.90;;;;;;5036963;28;20423;-75
2023/06/23 03:55:02;;;;;;;13.38;2.97;;;23.70;99.90;;;;;;5054503;28;20033;-74
2023/06/23 03:57:34;;;;;;;9.27;2.88;;;23.70;99.90;;;;;;5036964;28;20036;-74
2023/06/23 04:00:04;;;;;;;16.00;3.67;;;23.60;99.90;;;;;;5036864;28;20028;-74
2023/06/23 04:02:35;;;;;;;8.10;2.95;;;23.60;99.90;;;;;;5036388;28;20036;-74
2023/06/23 04:05:06;;;;;;;10.70;3.00;;;23.50;99.90;;;;;;5019396;28;20037;-75
2023/06/23 04:08:00;;;;;;;10.60;3.22;;;23.50;99.90;;;;;;5049108;28;20033;-73
2023/06/23 04:10:32;;;;;;;13.68;3.30;;;23.50;99.90;;;;;;5034113;28;20060;-69
2023/06/23 04:13:02;;;;;;;7.72;2.72;;;23.60;99.90;;;;;;5046917;28;20119;-71
2023/06/23 04:15:29;;;;;;;7.32;2.35;;;23.60;99.90;;;;;;5053991;28;20040;-70
2023/06/23 04:18:01;;;;;;;7.72;2.95;;;23.60;99.90;;;;;;5054231;28;20028;-75
2023/06/23 04:20:36;;;;;;;11.80;3.03;;;23.60;99.90;;;;;;5054027;28;20033;-78
2023/06/23 04:23:06;;;;;;;8.35;3.30;;;23.60;99.90;;;;;;5036207;28;20037;-77
2023/06/23 04:25:42;;;;;;;9.93;2.53;;;23.60;99.90;;;;;;5035284;28;20036;-74
2023/06/23 04:28:56;;;;;;;13.60;3.15;;;23.60;99.90;;;;;;5053609;28;20063;-73
2023/06/23 04:31:34;;;;;;;14.77;3.28;;;23.60;99.90;;;;;;5053127;28;20086;-70
2023/06/23 04:34:13;;;;;;;7.03;2.90;;;23.60;99.90;;;;;;5053830;28;20033;-72
2023/06/23 04:37:05;;;;;;;9.40;2.85;;;23.60;99.90;;;;;;5035017;28;20115;-69
2023/06/23 04:40:02;;;;;;;9.65;2.85;;;23.60;99.90;;;;;;5019772;28;20040;-70
2023/06/23 04:42:43;;;;;;;8.65;2.88;;;23.60;99.90;;;;;;5045059;28;20040;-66
2023/06/23 04:45:12;;;;;;;10.93;2.60;;;23.60;99.90;;;;;;5022125;28;20392;-67
2023/06/23 04:47:48;;;;;;;10.90;2.60;;;23.60;99.90;;;;;;5053288;28;20033;-69
2023/06/23 04:50:21;;;;;;;9.10;2.25;;;23.60;99.90;;;;;;5056477;28;20143;-67
2023/06/23 04:53:13;;;;;;;5.65;2.65;;;23.60;99.90;;;;;;5071029;28;20045;-67
2023/06/23 04:55:58;;;;;;;10.35;2.63;;;23.60;99.90;;;;;;5072136;28;20043;-76
2023/06/23 04:58:29;;;;;;;6.35;2.55;;;23.50;99.90;;;;;;5056996;28;20066;-76
2023/06/23 05:01:03;;;;;;;9.80;3.17;;;23.40;99.90;;;;;;5073325;28;20040;-75
2023/06/23 05:03:50;;;;;;;8.20;3.10;;;23.40;99.90;;;;;;5076890;28;20025;-76
2023/06/23 05:06:31;;;;;;;14.52;2.58;;;23.30;99.90;;;;;;5076483;28;20396;-76
2023/06/23 05:09:09;;;;;;;8.63;3.30;;;23.30;99.90;;;;;;5074054;28;20384;-75
2023/06/23 05:11:48;;;;;;;6.10;2.50;;;23.30;99.90;;;;;;5076470;28;20429;-76
2023/06/23 05:14:26;;;;;;;6.32;2.50;;;23.40;99.90;;;;;;5077315;28;20041;-76
2023/06/23 05:17:10;;;;;;;9.85;2.58;;;23.30;99.90;;;;;;5058764;28;20029;-75
2023/06/23 05:19:57;;;;;;;10.73;2.40;;;23.30;99.90;;;;;;5076817;28;20094;-75
2023/06/23 05:22:29;;;;;;;7.68;2.70;;;23.30;99.90;;;;;;5076048;28;20035;-75
2023/06/23 05:25:04;;;;;;;9.73;3.00;;;23.30;99.90;;;;;;5076006;28;20029;-75
2023/06/23 05:27:49;;;;;;;10.68;3.15;;;23.40;99.90;;;;;;5075653;28;20186;-75
2023/06/23 05:30:55;;;;;;;9.38;3.00;;;23.40;99.90;;;;;;5050004;28;20033;-75
2023/06/23 05:33:48;;;;;;;8.20;2.80;;;23.30;99.90;;;;;;5076925;28;20107;-75
2023/06/23 05:36:45;;;;;;;8.98;2.75;;;23.40;99.90;;;;;;5076595;28;20425;-75
2023/06/23 05:39:45;;;;;;;9.48;2.58;;;23.30;99.90;;;;;;5073557;28;20069;-75
2023/06/23 05:42:18;;;;;;;10.88;3.70;;;23.30;99.90;;;;;;5071070;28;20383;-75
2023/06/23 05:44:50;;;;;;;28.98;4.15;;;23.40;99.90;;;;;;5076762;28;20453;-75
2023/06/23 05:47:55;;;;;;;11.95;2.85;;;23.40;99.90;;;;;;5058017;28;20029;-75
2023/06/23 05:50:39;;;;;;;13.35;3.63;;;23.40;99.90;;;;;;5040785;28;20118;-76
2023/06/23 05:53:31;;;;;;;21.45;4.28;;;23.50;99.90;;;;;;5076025;28;20468;-75
2023/06/23 05:56:36;;;;;;;9.65;3.65;;;23.50;99.90;;;;;;5076360;28;20040;-75
2023/06/23 05:59:11;;;;;;;11.68;3.20;;;25.50;99.90;;;;;;5074740;28;20058;-75
2023/06/23 06:01:48;;;;;;;10.35;2.72;;;23.50;99.90;;;;;;5058599;28;20419;-75
2023/06/23 06:04:22;;;;;;;14.90;3.75;;;23.50;99.90;;;;;;5041554;28;20337;-76
2023/06/23 06:07:00;;;;;;;7.53;2.50;;;23.50;99.90;;;;;;5076518;28;20016;-75
2023/06/23 06:09:53;;;;;;;7.85;3.00;;;23.50;99.90;;;;;;5074789;28;20392;-75
2023/06/23 06:12:33;;;;;;;9.43;2.88;;;24.30;99.90;;;;;;5073168;28;20481;-75
2023/06/23 06:15:08;;;;;;;10.60;2.85;;;23.50;99.90;;;;;;5076153;28;20167;-75
2023/06/23 06:17:48;;;;;;;11.50;2.75;;;23.60;99.90;;;;;;5073759;28;20090;-75
2023/06/23 06:20:23;;;;;;;10.45;2.88;;;23.70;99.90;;;;;;5073960;28;20044;-75
2023/06/23 06:22:59;;;;;;;5.18;2.50;;;23.80;99.90;;;;;;5074332;28;20040;-75
2023/06/23 06:25:36;;;;;;;7.97;2.67;;;23.80;99.90;;;;;;5040769;28;20040;-75
2023/06/23 06:28:29;;;;;;;10.05;2.67;;;24.00;99.90;;;;;;5074440;28;20387;-76
2023/06/23 06:31:21;;;;;;;7.45;2.40;;;24.10;99.90;;;;;;5073826;28;20480;-75
2023/06/23 06:33:59;;;;;;;8.80;2.53;;;24.40;99.90;;;;;;5076027;28;20021;-75
2023/06/23 06:36:42;;;;;;;7.72;2.60;;;24.60;99.90;;;;;;5075552;28;20042;-75
2023/06/23 06:39:54;;;;;;;6.85;2.38;;;24.80;99.90;;;;;;5060109;28;20041;-75
2023/06/23 06:42:28;;;;;;;5.95;2.30;;;25.00;99.90;;;;;;5069242;28;20435;-76
2023/06/23 06:45:19;;;;;;;7.93;2.20;;;25.10;99.90;;;;;;5074698;28;20144;-76
2023/06/23 06:48:11;;;;;;;5.47;2.08;;;25.10;99.90;;;;;;5071754;28;20036;-76
2023/06/23 06:50:49;;;;;;;7.28;1.85;;;25.20;99.90;;;;;;5054977;28;20052;-74
2023/06/23 06:53:30;;;;;;;8.68;2.28;;;25.40;99.90;;;;;;5033756;28;20032;-74
2023/06/23 06:56:01;;;;;;;3.92;1.80;;;25.50;99.60;;;;;;5039603;28;20033;-75
2023/06/23 06:58:30;;;;;;;5.82;2.20;;;25.60;99.20;;;;;;5021497;28;20029;-76
2023/06/23 07:01:19;;;;;;;3.60;1.77;;;25.50;98.10;;;;;;5054589;28;20051;-76
2023/06/23 07:04:08;;;;;;;5.82;1.85;;;25.70;98.50;;;;;;5037935;28;20067;-76
2023/06/23 07:06:52;;;;;;;4.13;1.65;;;26.00;97.30;;;;;;5055027;28;20469;-76
2023/06/23 07:09:45;;;;;;;5.22;1.52;;;26.10;97.00;;;;;;5051163;28;20119;-74
2023/06/23 07:12:15;;;;;;;8.20;1.50;;;25.80;96.80;;;;;;5037258;28;20037;-75
2023/06/23 07:15:09;;;;;;;7.55;1.70;;;25.70;96.90;;;;;;5053727;28;20053;-75
2023/06/23 07:17:43;;;;;;;5.78;1.65;;;25.60;96.30;;;;;;5036817;28;20424;-74
2023/06/23 07:20:18;;;;;;;4.15;1.50;;;25.70;96.20;;;;;;5054636;28;20108;-74
2023/06/23 07:23:09;;;;;;;4.18;1.50;;;25.60;96.50;;;;;;5054300;28;20067;-74
2023/06/23 07:25:40;;;;;;;2.38;1.00;;;25.70;96.10;;;;;;5039160;28;20051;-74
2023/06/23 07:28:29;;;;;;;1.83;1.38;;;26.40;96.20;;;;;;5038970;28;20041;-74
2023/06/23 07:31:14;;;;;;;2.55;1.20;;;25.90;95.50;;;;;;5051530;28;20033;-74
2023/06/23 07:33:44;;;;;;;3.35;2.05;;;25.90;95.40;;;;;;5036591;28;20067;-75
2023/06/23 07:36:27;;;;;;;10.18;1.58;;;26.00;95.40;;;;;;5054146;28;20033;-74
2023/06/23 07:39:08;;;;;;;4.55;1.30;;;26.20;95.00;;;;;;5015996;28;20037;-74
2023/06/23 07:41:59;;;;;;;9.02;2.25;;;26.20;94.70;;;;;;5037124;28;20539;-74
2023/06/23 07:45:20;;;;;;;2.83;1.40;;;26.30;94.10;;;;;;5035004;28;20051;-76
2023/06/23 07:47:54;;;;;;;3.20;1.33;;;26.60;93.60;;;;;;5052895;28;20493;-74
2023/06/23 07:51:05;;;;;;;6.32;1.38;;;26.40;93.40;;;;;;5054316;28;20051;-74
2023/06/23 07:53:46;;;;;;;4.00;1.42;;;26.50;93.30;;;;;;5054443;28;20104;-76
2023/06/23 07:56:21;;;;;;;3.75;1.38;;;26.80;92.60;;;;;;5054160;28;20037;-76
2023/06/23 07:58:56;;;;;;;3.80;1.40;;;26.80;92.40;;;;;;5019946;28;20493;-75
2023/06/23 08:01:41;;;;;;;2.33;1.45;;;26.80;92.70;;;;;;5035162;28;20044;-77
2023/06/23 08:04:12;;;;;;;6.82;1.42;;;26.90;92.20;;;;;;5053752;28;20430;-74
2023/06/23 08:06:45;;;;;;;5.03;1.45;;;26.60;91.90;;;;;;5035439;28;20036;-74
2023/06/23 08:09:20;;;;;;;4.80;1.33;;;26.50;92.10;;;;;;5015420;28;20033;-74
2023/06/23 08:12:05;;;;;;;2.15;1.55;;;26.50;92.50;;;;;;5048302;28;20044;-74
2023/06/23 08:14:37;;;;;;;3.00;1.60;;;26.40;92.30;;;;;;5053003;28;20049;-74
2023/06/23 08:17:25;;;;;;;2.33;1.17;;;26.90;92.30;;;;;;5049908;28;20272;-74
2023/06/23 08:20:15;;;;;;;4.10;1.40;;;27.30;92.10;;;;;;5031651;28;20384;-73
2023/06/23 08:23:08;;;;;;;6.10;1.30;;;26.90;91.70;;;;;;5035316;28;20033;-73
2023/06/23 08:26:19;;;;;;;2.72;1.30;;;26.70;92.10;;;;;;5052450;28;20068;-74
2023/06/23 08:28:54;;;;;;;6.30;1.08;;;26.20;92.40;;;;;;5053725;28;20029;-74
2023/06/23 08:31:38;;;;;;;2.42;1.20;;;26.50;92.30;;;;;;5053381;28;20029;-74
2023/06/23 08:34:28;;;;;;;3.47;1.25;;;27.10;91.70;;;;;;5047238;28;20041;-75
2023/06/23 08:37:08;;;;;;;3.08;1.10;;;27.50;90.90;;;;;;5038382;28;20041;-74
2023/06/23 08:39:45;;;;;;;5.55;1.20;;;27.50;89.90;;;;;;5053186;28;20071;-73
2023/06/23 08:42:30;;;;;;;6.05;1.17;;;27.10;90.00;;;;;;5020622;28;20116;-73
2023/06/23 08:45:36;;;;;;;5.72;1.20;;;27.10;89.20;;;;;;5033057;28;20126;-75
2023/06/23 08:48:26;;;;;;;2.38;0.95;;;26.80;89.60;;;;;;5030912;28;20033;-75
2023/06/23 08:51:24;;;;;;;4.53;1.10;;;26.80;89.60;;;;;;5035483;28;20041;-72
2023/06/23 08:54:04;;;;;;;1.20;0.80;;;27.10;89.00;;;;;;5044912;28;20061;-73
2023/06/23 08:56:48;;;;;;;1.95;1.10;;;27.50;87.70;;;;;;5035421;28;20041;-72
2023/06/23 08:59:51;;;;;;;1.90;0.90;;;27.40;87.90;;;;;;5053506;28;20115;-73
2023/06/23 09:02:37;;;;;;;2.00;1.00;;;27.30;86.60;;;;;;5053125;28;20036;-72
2023/06/23 09:05:23;;;;;;;4.72;1.02;;;27.30;86.10;;;;;;5037823;28;20110;-75
2023/06/23 09:07:58;;;;;;;1.40;1.20;;;26.90;85.20;;;;;;5034849;28;20043;-76
2023/06/23 09:10:26;;;;;;;3.38;1.00;;;26.90;85.70;;;;;;5025792;28;20041;-74
2023/06/23 09:13:24;;;;;;;1.30;1.00;;;27.00;85.20;;;;;;5036486;28;20119;-73
2023/06/23 09:15:54;;;;;;;2.65;0.77;;;26.90;85.70;;;;;;5053281;28;20037;-73
2023/06/23 09:18:51;;;;;;;3.80;1.00;;;27.00;85.80;;;;;;5053189;28;20377;-73
2023/06/23 09:21:22;;;;;;;3.50;1.23;;;27.10;85.80;;;;;;5052203;28;20040;-73
2023/06/23 09:24:20;;;;;;;3.15;1.00;;;27.50;85.80;;;;;;5035607;28;20175;-75
2023/06/23 09:26:56;;;;;;;2.88;0.80;;;27.80;84.80;;;;;;5034795;28;20477;-74
2023/06/23 09:29:37;;;;;;;1.67;1.00;;;27.90;84.00;;;;;;5053182;28;20029;-75
2023/06/23 09:32:12;;;;;;;4.45;1.27;;;27.80;83.80;;;;;;5053224;28;20449;-75
2023/06/23 09:34:47;;;;;;;8.13;0.82;;;27.80;83.70;;;;;;5018698;28;20120;-72
2023/06/23 09:37:40;;;;;;;2.80;0.98;;;27.70;82.70;;;;;;5053248;28;20051;-73
2023/06/23 09:40:16;;;;;;;5.38;0.77;;;27.80;82.30;;;;;;5042504;28;20477;-72
2023/06/23 09:42:45;;;;;;;2.15;0.52;;;27.70;82.60;;;;;;5036764;28;20033;-74
2023/06/23 09:45:19;;;;;;;3.83;0.73;;;27.90;82.70;;;;;;5052799;28;20029;-73
2023/06/23 09:47:53;;;;;;;4.03;1.23;;;28.10;81.40;;;;;;5036755;28;20037;-73
2023/06/23 09:50:33;;;;;;;3.55;0.70;;;28.00;81.70;;;;;;5055357;28;20359;-74
2023/06/23 09:53:10;;;;;;;3.72;0.75;;;28.20;80.00;;;;;;5022808;28;20129;-76
2023/06/23 09:55:55;;;;;;;0.85;0.60;;;27.80;81.20;;;;;;4981954;28;20091;-74
2023/06/23 09:58:52;;;;;;;1.23;0.50;;;27.40;81.30;;;;;;5056381;28;20059;-74
2023/06/23 10:01:20;;;;;;;2.78;0.90;;;27.10;82.20;;;;;;5054620;28;20036;-75
2023/06/23 10:04:12;;;;;;;2.15;0.50;;;27.10;82.50;;;;;;5052276;28;20043;-72
2023/06/23 10:06:45;;;;;;;2.72;0.80;;;27.30;82.80;;;;;;5035416;28;20037;-75
2023/06/23 10:09:24;;;;;;;3.28;1.38;;;27.50;82.30;;;;;;5024266;28;20033;-74
2023/06/23 10:11:55;;;;;;;3.63;0.80;;;27.50;82.40;;;;;;5037515;28;20041;-73
2023/06/23 10:14:37;;;;;;;5.40;0.75;;;27.60;81.40;;;;;;5040657;28;20041;-75
2023/06/23 10:17:09;;;;;;;3.80;0.60;;;27.90;81.40;;;;;;5038617;28;20032;-74
2023/06/23 10:19:40;;;;;;;5.63;0.60;;;27.90;81.00;;;;;;5055996;28;20047;-73
2023/06/23 10:22:18;;;;;;;1.35;0.30;;;27.80;80.70;;;;;;5053523;28;20117;-73
2023/06/23 10:25:16;;;;;;;1.40;0.63;;;27.90;81.00;;;;;;5038393;28;20029;-73
2023/06/23 10:28:20;;;;;;;1.60;0.40;;;27.90;79.60;;;;;;5055063;28;20086;-73
2023/06/23 10:30:55;;;;;;;3.53;0.65;;;28.00;78.20;;;;;;5036761;28;20759;-72
2023/06/23 10:33:31;;;;;;;3.90;0.47;;;28.40;77.30;;;;;;5002899;28;20441;-75
2023/06/23 10:36:07;;;;;;;4.60;0.30;;;28.50;77.50;;;;;;5042994;28;20048;-75
2023/06/23 10:38:45;;;;;;;1.45;0.20;;;28.80;76.10;;;;;;5038969;28;20147;-75
2023/06/23 10:41:13;;;;;;;1.02;0.20;;;28.60;76.30;;;;;;5022429;28;20039;-75
2023/06/23 10:43:44;;;;;;;0.57;0.35;;;28.80;75.20;;;;;;5055458;28;20021;-73
2023/06/23 10:46:10;;;;;;;2.72;0.43;;;28.70;75.20;;;;;;5055775;28;20423;-73
2023/06/23 10:48:36;;;;;;;2.72;0.50;;;28.50;76.40;;;;;;5037504;28;20025;-75
2023/06/23 10:51:03;;;;;;;3.22;0.63;;;28.70;77.00;;;;;;5055897;28;20025;-74
2023/06/23 10:53:32;;;;;;;1.45;0.50;;;28.90;77.80;;;;;;5037810;28;20516;-74
2023/06/23 10:55:59;;;;;;;1.85;0.57;;;29.10;76.60;;;;;;5037879;28;20120;-75
2023/06/23 10:58:25;;;;;;;0.75;0.55;;;29.10;75.90;;;;;;5055078;28;20031;-75
2023/06/23 11:00:54;;;;;;;2.83;0.30;;;28.90;75.60;;;;;;5037727;28;20099;-72
2023/06/23 11:03:32;;;;;;;0.30;0.20;;;28.30;75.60;;;;;;5055384;28;20029;-74
2023/06/23 11:06:09;;;;;;;0.40;0.20;;;28.00;76.60;;;;;;5037833;28;20040;-74
2023/06/23 11:08:38;;;;;;;2.38;0.22;;;27.90;76.80;;;;;;5055380;28;20059;-74
2023/06/23 11:11:06;;;;;;;2.70;0.50;;;27.90;77.10;;;;;;5055299;28;20024;-74
2023/06/23 11:13:44;;;;;;;4.03;0.40;;;28.30;76.90;;;;;;5054796;28;20393;-73
2023/06/23 11:16:29;;;;;;;0.93;0.20;;;28.60;76.30;;;;;;5055239;28;20044;-75
2023/06/23 11:18:57;;;;;;;2.70;0.20;;;29.40;75.90;;;;;;5037801;28;20065;-74
2023/06/23 11:21:28;;;;;;;1.85;0.30;;;30.50;74.20;;;;;;5055126;28;20024;-74
2023/06/23 11:24:13;;;;;;;2.58;0.20;;;31.10;70.70;;;;;;5055274;28;20029;-74
2023/06/23 11:26:52;;;;;;;6.28;0.25;;;31.70;69.60;;;;;;5037111;28;20420;-74
2023/06/23 11:29:21;;;;;;;2.78;0.30;;;31.60;66.70;;;;;;5054910;28;20078;-74
2023/06/23 11:32:05;;;;;;;;;;;31.10;67.60;;;;;;5055212;28;20021;-74
2023/06/23 11:34:58;;;;;;;2.47;0.20;;;30.50;68.40;;;;;;5036877;28;19978;-75
2023/06/23 11:37:28;;;;;;;3.30;0.30;;;30.40;67.80;;;;;;5037534;28;20115;-75
2023/06/23 11:39:55;;;;;;;3.85;0.20;;;30.70;67.70;;;;;;5036737;28;20032;-74
2023/06/23 11:42:22;;;;;;;2.95;0.17;;;30.80;67.90;;;;;;5036482;28;20060;-74
2023/06/23 11:44:48;;;;;;;5.50;0.30;;;30.20;67.20;;;;;;5054644;28;20029;-74
2023/06/23 11:47:15;;;;;;;5.00;0.60;;;29.10;68.20;;;;;;5036628;28;20116;-74
2023/06/23 11:49:41;;;;;;;1.80;0.20;;;27.90;71.60;;;;;;5053148;28;20049;-75
2023/06/23 11:52:07;;;;;;;0.88;0.20;;;27.00;74.10;;;;;;5074737;28;20032;-74
2023/06/23 11:54:35;;;;;;;3.38;0.30;;;26.40;76.20;;;;;;5074346;28;20039;-74
2023/06/23 11:57:02;;;;;;;;;;;25.80;77.20;;;;;;5074528;28;20067;-74
2023/06/23 11:59:37;;;;;;;4.28;0.30;;;25.50;79.10;;;;;;5074361;28;19950;-74
2023/06/23 12:02:04;;;;;;;3.28;0.30;;;25.10;80.40;;;;;;5074476;28;20016;-74
2023/06/23 12:04:31;;;;;;;2.67;0.40;;;24.80;82.70;;;;;;5074260;28;20107;-74
2023/06/23 12:06:59;;;;;;;3.05;0.20;;;24.70;83.10;;;;;;5074494;28;20028;-74
2023/06/23 12:09:25;;;;;;;0.68;0.20;;;24.50;83.80;;;;;;5074301;28;20029;-74
2023/06/23 12:11:52;;;;;;;6.53;0.20;;;24.30;84.40;;;;;;5073798;28;20017;-74
2023/06/23 12:14:17;;;;;;;2.40;0.40;;;24.20;85.20;;;;;;5072757;28;20539;-75
2023/06/23 12:16:43;;;;;;;0.32;0.32;;;24.20;85.70;;;;;;5072732;28;20036;-74
2023/06/23 12:19:09;;;;;;;0.82;0.50;;;24.10;84.00;;;;;;5073994;28;20020;-74
2023/06/23 12:21:39;;;;;;;4.93;1.20;;;24.00;83.70;;;;;;5073729;28;20025;-74
2023/06/23 12:24:07;;;;;;;2.95;0.82;;;23.80;84.30;;;;;;5072769;28;20035;-74
2023/06/23 12:26:33;;;;;;;2.35;0.55;;;23.70;85.40;;;;;;5073480;28;20036;-74
2023/06/23 12:29:09;;;;;;;2.67;0.98;;;23.60;86.60;;;;;;5072517;28;20384;-74
2023/06/23 12:31:35;;;;;;;2.10;0.60;;;23.40;88.10;;;;;;5074055;28;20037;-74
2023/06/23 12:34:01;;;;;;;6.03;0.70;;;23.20;89.90;;;;;;5073781;28;20017;-74
2023/06/23 12:36:27;;;;;;;4.20;0.90;;;23.10;90.20;;;;;;5072757;28;20024;-74
2023/06/23 12:38:57;;;;;;;1.20;1.00;;;22.90;90.10;;;;;;5072599;28;20034;-74
2023/06/23 12:41:28;;;;;;;4.15;0.98;;;22.90;90.30;;;;;;5072617;28;20385;-74
2023/06/23 12:44:03;;;;;;;3.00;0.93;;;22.80;90.30;;;;;;5073962;28;20028;-74
2023/06/23 12:46:33;;;;;;;5.28;1.45;;;22.60;91.40;;;;;;5073873;28;20025;-74
2023/06/23 12:48:59;;;;;;;6.22;1.42;;;22.40;92.60;;;;;;5069206;28;20045;-71
2023/06/23 12:51:35;;;;;;;2.13;1.60;;;22.20;94.10;;;;;;5053583;28;20043;-71
2023/06/23 12:54:01;;;;;;;2.00;1.25;;;22.10;95.50;;;;;;5053795;28;20024;-71
2023/06/23 12:56:27;;;;;;;3.90;1.40;;;22.00;96.30;;;;;;5053541;28;20109;-70
2023/06/23 12:58:54;;;;;;;1.73;1.30;;;21.90;98.20;;;;;;5053595;28;20526;-71
2023/06/23 13:01:20;;;;;;;3.28;1.73;;;21.80;99.90;;;;;;5053399;28;20029;-71
2023/06/23 13:03:48;;;;;;;6.13;1.70;;;21.60;99.90;;;;;;5053234;28;20071;-71
2023/06/23 13:06:17;;;;;;;1.70;1.60;;;21.50;99.90;;;;;;5053110;28;20112;-70
2023/06/23 13:08:42;;;;;;;3.30;1.90;;;21.30;99.90;;;;;;5053751;28;20275;-70
2023/06/23 13:11:09;;;;;;;4.20;2.20;;;21.10;99.90;;;;;;5035548;28;20362;-69
2023/06/23 13:13:34;;;;;;;3.28;2.05;;;20.90;99.90;;;;;;5053431;28;20359;-68
2023/06/23 13:16:00;;;;;;;3.03;2.20;;;20.50;99.90;;;;;;5053278;28;20032;-67
2023/06/23 13:18:26;;;;;;;4.05;2.42;;;20.10;99.90;;;;;;5035358;28;20029;-66
2023/06/23 13:20:51;;;;;;;4.60;2.70;;;19.90;99.90;;;;;;5053303;28;20484;-66
2023/06/23 13:23:17;;;;;;;9.07;3.05;;;19.70;99.90;;;;;;5054767;28;20031;-66
2023/06/23 13:25:43;;;;;;;3.67;2.72;;;19.40;99.90;;;;;;5056972;28;20035;-66
2023/06/23 13:28:09;;;;;;;4.10;2.65;;;19.30;99.90;;;;;;5039055;28;20044;-67
2023/06/23 13:30:34;;;;;;;4.30;3.00;;;19.20;99.90;;;;;;5057936;28;20035;-66
2023/06/23 13:33:00;;;;;;;3.53;3.20;;;19.20;99.90;;;;;;5056817;28;20029;-66
2023/06/23 13:35:26;;;;;;;5.07;3.22;;;19.10;99.90;;;;;;5056727;28;20064;-66